createdAt,value
2022-08-22T00:03:05.495Z,18.8
2022-08-22T00:09:09.767Z,17.1
2022-08-22T00:19:10.558Z,16.9
2022-08-22T00:29:10.807Z,16.7
2022-08-22T00:39:11.491Z,16.6
2022-08-22T00:49:11.854Z,16.4
2022-08-22T01:09:12.796Z,16.2
2022-08-22T01:19:13.176Z,16
2022-08-22T01:29:13.898Z,15.9
2022-08-22T01:39:14.271Z,15.8
2022-08-22T01:49:14.643Z,15.6
2022-08-22T02:09:15.823Z,15.3
2022-08-22T02:19:16.415Z,15.2
2022-08-22T02:29:16.526Z,15.1
2022-08-22T02:39:17.366Z,15.1
2022-08-22T02:49:17.986Z,14.9
2022-08-22T03:19:19.618Z,14.7
2022-08-22T03:29:20.197Z,14.6
2022-08-22T03:39:20.359Z,14.5
2022-08-22T04:19:22.433Z,14.4
2022-08-22T04:29:22.949Z,14.4
2022-08-22T04:39:24.030Z,14.4
2022-08-22T04:49:24.923Z,14.5
2022-08-22T05:09:25.808Z,14.8
2022-08-22T05:19:31.297Z,15
2022-08-22T05:29:26.886Z,15.3
2022-08-22T05:39:27.951Z,15.7
2022-08-22T05:49:28.627Z,15.9
2022-08-22T05:59:28.955Z,16.4
2022-08-22T06:09:34.893Z,16.9
2022-08-22T06:19:29.725Z,17.3
2022-08-22T06:39:31.434Z,17.9
2022-08-22T06:49:31.615Z,18.3
2022-08-22T06:59:32.534Z,18.4
2022-08-22T07:09:32.642Z,18.4
2022-08-22T07:19:32.821Z,18.6
2022-08-22T07:29:33.162Z,18.9
2022-08-22T07:39:33.625Z,19.6
2022-08-22T07:49:34.285Z,20.2
2022-08-22T07:59:34.640Z,20.6
2022-08-22T08:09:35.246Z,20.8
2022-08-22T08:19:35.303Z,20.9
2022-08-22T08:29:35.873Z,21.3
2022-08-22T08:39:36.729Z,21.3
2022-08-22T08:49:38.735Z,21.8
2022-08-22T08:59:40.401Z,22.4
2022-08-22T09:09:37.775Z,22.7
2022-08-22T09:19:38.573Z,23.2
2022-08-22T09:39:39.367Z,23.4
2022-08-22T12:20:12.675Z,26.2
2022-08-22T12:20:16.664Z,26.2
2022-08-22T12:39:54.749Z,26.5
2022-08-22T12:49:55.196Z,27.1
2022-08-22T12:59:55.551Z,27
2022-08-22T13:09:55.777Z,26.8
2022-08-22T13:19:56.102Z,27.1
2022-08-22T13:29:56.950Z,27.5
2022-08-22T13:39:57.624Z,27.4
2022-08-22T13:49:58.173Z,27.3
2022-08-22T14:00:05.215Z,27.1
2022-08-22T14:09:59.370Z,27
2022-08-22T14:20:01.659Z,27.3
2022-08-22T14:40:00.150Z,28.6
2022-08-22T15:00:00.830Z,28.1
2022-08-22T15:10:03.048Z,28.9
2022-08-22T15:20:01.384Z,28.1
2022-08-22T15:30:01.943Z,28.9
2022-08-22T15:40:03.100Z,27.3
2022-08-22T17:20:06.663Z,26.7
2022-08-22T17:30:06.723Z,26.3
2022-08-22T17:40:06.902Z,26.2
2022-08-22T18:00:07.771Z,25.7
2022-08-22T18:10:08.490Z,25.1
2022-08-22T18:20:09.399Z,24.6
2022-08-22T18:30:09.550Z,24
2022-08-22T18:40:09.668Z,23.5
2022-08-22T18:50:10.187Z,23.1
2022-08-22T19:00:10.451Z,22.7
2022-08-22T19:10:11.413Z,22.2
2022-08-22T19:20:12.201Z,22
2022-08-22T19:30:13.098Z,21.9
2022-08-22T19:40:13.454Z,21.8
2022-08-22T19:50:13.659Z,21.6
2022-08-22T20:00:14.196Z,21.5
2022-08-22T20:10:14.268Z,21.2
2022-08-22T20:20:17.202Z,21.1
2022-08-22T20:30:15.929Z,21
2022-08-22T20:50:17.320Z,20.8
2022-08-22T21:00:17.517Z,20.6
2022-08-22T21:10:22.214Z,20.5
2022-08-22T21:20:18.322Z,20.4
2022-08-22T21:30:19.081Z,20.3
2022-08-22T21:40:19.660Z,20.3
2022-08-22T21:50:20.077Z,20.2
2022-08-22T22:00:20.394Z,20.2
2022-08-22T22:10:21.274Z,20
2022-08-22T22:20:22.158Z,19.9
2022-08-22T22:30:22.541Z,19.8
2022-08-22T22:40:23.170Z,19.8
2022-08-22T22:50:23.401Z,19.8
2022-08-22T23:00:24.312Z,19.6
2022-08-22T23:10:24.888Z,19.4
2022-08-22T23:20:25.635Z,19.3
2022-08-22T23:40:27.236Z,18.8
